Time;durP1;ratioP1;P1;durP2;ratioP2;P2;SDS_P1;SDS_P2;PMS_P1;PMS_P2;Temp;Humidity;BMP_temperature;BMP_pressure;BME280_temperature;BME280_humidity;BME280_pressure;Samples;Min_cycle;Max_cycle;Signal;HPM_P1;HPM_P2
2022/06/17 00:01:25;;;;;;;;;;;;;;;-144.99;89.86;52280.97;5083239;28;19925;-65
2022/06/17 00:03:52;;;;;;;;;;;;;;;-144.99;90.13;52276.88;5083252;28;19924;-62
2022/06/17 00:06:19;;;;;;;;;;;;;;;-144.99;90.81;52268.72;5079525;28;20027;-62
2022/06/17 00:08:49;;;;;;;;;;;;;;;-144.99;90.77;52232.03;5086411;28;20028;-63
2022/06/17 00:11:17;;;;;;;;;;;;;;;-144.99;90.86;52264.66;5081299;28;19924;-63
2022/06/17 00:13:45;;;;;;;;;;;;;;;-144.99;91.16;52240.19;5084077;28;19968;-63
2022/06/17 00:16:12;;;;;;;;;;;;;;;-144.99;91.57;52289.13;5081700;28;19924;-62
2022/06/17 00:18:39;;;;;;;;;;;;;;;-144.99;91.67;52244.28;5086557;28;20442;-61
2022/06/17 00:21:05;;;;;;;;;;;;;;;-144.99;91.70;52264.66;5085898;28;19977;-65
2022/06/17 00:23:32;;;;;;;;;;;;;;;-144.99;91.33;52285.03;5079439;28;20449;-60
2022/06/17 00:25:58;;;;;;;;;;;;;;;-144.99;91.07;52260.56;5083854;28;19985;-60
2022/06/17 00:28:25;;;;;;;;;;;;;;;-144.99;91.35;52223.88;5080681;28;19935;-59
2022/06/17 00:30:53;;;;;;;;;;;;;;;-144.99;91.85;52254.47;5083632;28;20019;-60
2022/06/17 00:33:19;;;;;;;;;;;;;;;-144.99;92.38;52232.03;5085247;28;20089;-61
2022/06/17 00:35:48;;;;;;;;;;;;;;;-144.99;91.96;52227.97;5082778;28;19974;-60
2022/06/17 00:38:17;;;;;;;;;;;;;;;-144.99;92.27;52272.81;5083761;28;19924;-61
2022/06/17 00:40:43;;;;;;;;;;;;;;;-144.99;91.79;52276.88;5091004;28;20376;-61
2022/06/17 00:43:21;;;;;;;;;;;;;;;-144.99;91.39;52270.78;5074777;28;19993;-61
2022/06/17 00:45:50;;;;;;;;;;;;;;;-144.99;90.65;52240.19;5085403;28;19964;-60
2022/06/17 00:48:21;;;;;;;;;;;;;;;-144.99;90.36;52260.56;5090378;28;19924;-60
2022/06/17 00:50:52;;;;;;;;;;;;;;;-144.99;90.37;52252.44;5077702;28;20013;-61
2022/06/17 00:53:20;;;;;;;;;;;;;;;-144.99;90.65;52260.56;5083304;28;20174;-61
2022/06/17 00:55:49;;;;;;;;;;;;;;;-144.99;90.25;52256.50;5085177;28;20446;-60
2022/06/17 00:58:17;;;;;;;;;;;;;;;-144.99;89.86;52285.03;5087385;28;20339;-60
2022/06/17 01:00:44;;;;;;;;;;;;;;;-144.99;89.85;52260.56;5086195;28;19935;-61
2022/06/17 01:03:13;;;;;;;;;;;;;;;-144.99;90.25;52280.97;5086455;28;20455;-60
2022/06/17 01:05:43;;;;;;;;;;;;;;;-144.99;90.49;52313.56;5079580;28;19928;-60
2022/06/17 01:08:14;;;;;;;;;;;;;;;-144.99;90.26;52240.19;5084937;28;19934;-61
2022/06/17 01:10:40;;;;;;;;;;;;;;;-144.99;90.47;52287.06;5082709;28;20049;-60
2022/06/17 01:13:08;;;;;;;;;;;;;;;-144.99;90.32;52256.50;5085142;28;19928;-61
2022/06/17 01:15:36;;;;;;;;;;;;;;;-144.99;91.18;52280.97;5081076;28;19924;-61
2022/06/17 01:18:03;;;;;;;;;;;;;;;-144.99;91.64;52270.78;5081980;28;19927;-61
2022/06/17 01:20:30;;;;;;;;;;;;;;;-144.99;91.89;52268.72;5082582;28;19963;-61
2022/06/17 01:22:59;;;;;;;;;;;;;;;-144.99;92.48;52268.72;5079828;28;20155;-63
2022/06/17 01:25:27;;;;;;;;;;;;;;;-144.99;92.12;52252.44;5083780;28;19924;-62
2022/06/17 01:27:55;;;;;;;;;;;;;;;-144.99;92.59;52252.44;5083553;28;19973;-62
2022/06/17 01:30:23;;;;;;;;;;;;;;;-144.99;93.36;52260.56;5077244;28;19979;-60
2022/06/17 01:32:52;;;;;;;;;;;;;;;-144.99;93.52;52236.13;5078531;28;19946;-60
2022/06/17 01:35:20;;;;;;;;;;;;;;;-144.99;93.26;52254.47;5078707;28;19963;-59
2022/06/17 01:37:48;;;;;;;;;;;;;;;-144.99;93.55;52289.13;5083661;28;20208;-58
2022/06/17 01:40:17;;;;;;;;;;;;;;;-144.99;93.49;52260.56;5084424;28;19963;-59
2022/06/17 01:42:44;;;;;;;;;;;;;;;-144.99;93.44;52262.63;5085721;28;19924;-60
2022/06/17 01:45:12;;;;;;;;;;;;;;;-144.99;94.05;52248.34;5087131;28;20029;-60
2022/06/17 01:47:40;;;;;;;;;;;;;;;-144.99;94.69;52276.88;5086366;28;19978;-59
2022/06/17 01:50:09;;;;;;;;;;;;;;;-144.99;95.20;52293.19;5079653;28;19958;-61
2022/06/17 01:52:38;;;;;;;;;;;;;;;-144.99;95.25;52248.34;5084926;28;19956;-61
2022/06/17 01:55:07;;;;;;;;;;;;;;;-144.99;95.55;52297.25;5085720;28;19967;-60
2022/06/17 01:57:38;;;;;;;;;;;;;;;-144.99;95.84;52289.13;5082343;28;19952;-61
2022/06/17 02:00:09;;;;;;;;;;;;;;;-144.99;96.23;52272.81;5085571;28;19928;-61
2022/06/17 02:02:36;;;;;;;;;;;;;;;-144.99;96.25;52297.25;5083438;28;19967;-60
2022/06/17 02:05:06;;;;;;;;;;;;;;;-144.99;96.52;52272.81;5085368;28;19956;-61
2022/06/17 02:07:35;;;;;;;;;;;;;;;-144.99;96.71;52268.72;5086906;28;19952;-62
2022/06/17 02:10:02;;;;;;;;;;;;;;;-144.99;96.46;52270.78;5079630;28;20035;-62
2022/06/17 02:12:29;;;;;;;;;;;;;;;-144.99;96.59;52297.25;5084839;28;19970;-61
2022/06/17 02:14:57;;;;;;;;;;;;;;;-144.99;96.30;52280.97;5087235;28;20032;-62
2022/06/17 02:17:26;;;;;;;;;;;;;;;-144.99;95.85;52268.72;5082038;28;20019;-62
2022/06/17 02:19:52;;;;;;;;;;;;;;;-144.99;96.03;52295.22;5088149;28;20015;-61
2022/06/17 02:22:24;;;;;;;;;;;;;;;-144.99;95.96;52260.56;5089362;28;20026;-61
2022/06/17 02:24:51;;;;;;;;;;;;;;;-144.99;95.69;52289.13;5086829;28;19947;-61
2022/06/17 02:27:18;;;;;;;;;;;;;;;-144.99;95.82;52211.66;5082551;28;20514;-62
2022/06/17 02:29:45;;;;;;;;;;;;;;;-144.99;95.36;52280.97;5088710;28;19983;-62
2022/06/17 02:32:14;;;;;;;;;;;;;;;-144.99;95.51;52272.81;5083849;28;19970;-61
2022/06/17 02:34:46;;;;;;;;;;;;;;;-144.99;95.48;52248.34;5086289;28;19963;-59
2022/06/17 02:37:15;;;;;;;;;;;;;;;-144.99;95.80;52289.13;5078996;28;19975;-60
2022/06/17 02:39:45;;;;;;;;;;;;;;;-144.99;96.05;52305.41;5076858;28;20022;-59
2022/06/17 02:42:16;;;;;;;;;;;;;;;-144.99;96.32;52254.47;5078801;28;19943;-59
2022/06/17 02:44:43;;;;;;;;;;;;;;;-144.99;96.52;52297.25;5081157;28;20943;-59
2022/06/17 02:47:10;;;;;;;;;;;;;;;-144.99;96.82;52260.56;5083790;28;19981;-59
2022/06/17 02:49:40;;;;;;;;;;;;;;;-144.99;97.36;52268.72;5063968;28;19989;-59
2022/06/17 02:52:10;;;;;;;;;;;;;;;-144.99;97.13;52254.47;5082211;28;19964;-61
2022/06/17 02:54:39;;;;;;;;;;;;;;;-144.99;97.55;52289.13;5081259;28;19932;-62
2022/06/17 02:57:07;;;;;;;;;;;;;;;-144.99;97.72;52289.13;5079820;28;19928;-60
2022/06/17 02:59:36;;;;;;;;;;;;;;;-144.99;97.81;52276.88;5079820;28;20365;-60
2022/06/17 03:02:06;;;;;;;;;;;;;;;-144.99;97.99;52272.81;5079264;28;19977;-62
2022/06/17 03:04:34;;;;;;;;;;;;;;;-144.99;98.39;52297.25;5080739;28;19951;-62
2022/06/17 03:07:02;;;;;;;;;;;;;;;-144.99;98.74;52240.19;5081616;28;20285;-61
2022/06/17 03:09:30;;;;;;;;;;;;;;;-144.99;99.60;52285.03;5081209;28;19976;-62
2022/06/17 03:11:59;;;;;;;;;;;;;;;-144.99;99.64;52266.69;5079207;28;19928;-62
2022/06/17 03:14:29;;;;;;;;;;;;;;;-144.99;99.38;52264.66;5075910;28;20015;-61
2022/06/17 03:16:59;;;;;;;;;;;;;;;-144.99;99.29;52329.88;5079277;28;19977;-61
2022/06/17 03:19:27;;;;;;;;;;;;;;;-144.99;99.35;52313.56;5082086;28;19955;-61
2022/06/17 03:21:53;;;;;;;;;;;;;;;-144.99;99.66;52264.66;5083977;28;19940;-61
2022/06/17 03:24:24;;;;;;;;;;;;;;;-144.99;99.86;52285.03;5087001;28;19924;-61
2022/06/17 03:26:54;;;;;;;;;;;;;;;-144.99;100.00;52319.69;5082876;28;19924;-63
2022/06/17 03:29:22;;;;;;;;;;;;;;;-144.99;100.00;52246.31;5082221;28;19985;-61
2022/06/17 03:31:51;;;;;;;;;;;;;;;-144.99;100.00;52301.34;5079595;28;20337;-61
2022/06/17 03:34:20;;;;;;;;;;;;;;;-144.99;100.00;52293.19;5089682;28;19931;-61
2022/06/17 03:36:50;;;;;;;;;;;;;;;-144.99;100.00;52242.22;5081382;28;20119;-62
2022/06/17 03:39:19;;;;;;;;;;;;;;;-144.99;100.00;52272.81;5092818;28;19967;-61
2022/06/17 03:41:49;;;;;;;;;;;;;;;-144.99;100.00;52268.72;5089517;28;19924;-62
2022/06/17 03:44:17;;;;;;;;;;;;;;;-144.99;100.00;52285.03;5086768;28;19960;-63
2022/06/17 03:46:46;;;;;;;;;;;;;;;-144.99;100.00;52287.06;5091892;28;19971;-61
2022/06/17 03:49:15;;;;;;;;;;;;;;;-144.99;100.00;52266.69;5089076;28;19978;-62
2022/06/17 03:51:43;;;;;;;;;;;;;;;-144.99;100.00;52280.97;5117572;22;19967;-64
2022/06/17 03:54:11;;;;;;;;;;;;;;;-144.99;100.00;52293.19;5108256;28;20001;-65
2022/06/17 03:56:41;;;;;;;;;;;;;;;-144.99;100.00;52289.13;5110205;28;20015;-61
2022/06/17 03:59:15;;;;;;;;;;;;;;;-144.99;100.00;52260.56;5090261;28;19932;-61
2022/06/17 04:01:43;;;;;;;;;;;;;;;-144.99;99.62;52270.78;5091316;28;20043;-63
2022/06/17 04:04:15;;;;;;;;;;;;;;;-144.99;99.29;52252.44;5084636;28;20023;-63
2022/06/17 04:06:43;;;;;;;;;;;;;;;-144.99;98.72;52230.00;5081823;28;19924;-64
2022/06/17 04:09:14;;;;;;;;;;;;;;;-144.99;98.46;52268.72;5086113;28;20015;-64
2022/06/17 04:11:41;;;;;;;;;;;;;;;-144.99;98.32;52301.34;5074635;28;20284;-64
2022/06/17 04:14:15;;;;;;;;;;;;;;;-144.99;98.31;52264.66;5076413;28;19936;-72
2022/06/17 04:16:44;;;;;;;;;;;;;;;-144.99;98.78;52221.84;5082999;28;19959;-69
2022/06/17 04:19:14;;;;;;;;;;;;;;;-144.99;98.40;52289.13;5080766;28;20392;-69
2022/06/17 04:21:41;;;;;;;;;;;;;;;-144.99;97.90;52244.28;5084848;28;19924;-68
2022/06/17 04:24:10;;;;;;;;;;;;;;;-144.99;98.09;52285.03;5081270;28;19928;-65
2022/06/17 04:26:38;;;;;;;;;;;;;;;-144.99;98.28;52244.28;5074570;28;20379;-64
2022/06/17 04:29:06;;;;;;;;;;;;;;;-144.99;98.24;52262.63;5082957;28;19977;-64
2022/06/17 04:31:34;;;;;;;;;;;;;;;-144.99;98.16;52256.50;5081125;28;19985;-64
2022/06/17 04:34:03;;;;;;;;;;;;;;;-144.99;98.15;52227.97;5083464;28;19924;-70
2022/06/17 04:36:31;;;;;;;;;;;;;;;-144.99;97.84;52260.56;5081054;28;20266;-67
2022/06/17 04:39:01;;;;;;;;;;;;;;;-144.99;98.04;52260.56;5083388;28;19928;-64
2022/06/17 04:41:31;;;;;;;;;;;;;;;-144.99;97.37;52252.44;5078237;28;19932;-63
2022/06/17 04:43:58;;;;;;;;;;;;;;;-144.99;96.96;52264.66;5079140;28;19974;-63
2022/06/17 04:46:29;;;;;;;;;;;;;;;-144.99;95.20;52270.78;5076438;28;20020;-65
2022/06/17 04:48:58;;;;;;;;;;;;;;;-144.99;94.57;52262.63;5075911;28;19928;-63
2022/06/17 04:51:25;;;;;;;;;;;;;;;-144.99;94.32;52223.88;5076326;28;20050;-66
2022/06/17 04:53:53;;;;;;;;;;;;;;;-144.99;95.04;52248.34;5076927;28;19932;-68
2022/06/17 04:56:23;;;;;;;;;;;;;;;-144.99;94.75;52223.88;5082951;28;19943;-67
2022/06/17 04:58:49;;;;;;;;;;;;;;;-144.99;94.31;52223.88;5076987;28;19924;-67
2022/06/17 05:01:18;;;;;;;;;;;;;;;-144.99;93.46;52246.31;5062077;28;19928;-67
2022/06/17 05:03:45;;;;;;;;;;;;;;;-144.99;92.68;52203.50;5083403;28;20405;-67
2022/06/17 05:06:17;;;;;;;;;;;;;;;-144.99;91.44;52234.09;4548749;28;10000852;-67
2022/06/17 05:08:46;;;;;;;;;;;;;;;-144.99;90.61;52199.44;5083156;28;20006;-66
2022/06/17 05:11:15;;;;;;;;;;;;;;;-144.99;89.76;52248.34;5077864;28;19998;-66
2022/06/17 05:13:45;;;;;;;;;;;;;;;-144.99;89.15;52195.34;5077618;28;19967;-66
2022/06/17 05:16:13;;;;;;;;;;;;;;;-144.99;88.37;52236.13;5068258;28;20308;-67
2022/06/17 05:18:39;;;;;;;;;;;;;;;-144.99;86.72;52252.44;5086051;28;19979;-66
2022/06/17 05:21:07;;;;;;;;;;;;;;;-144.99;85.62;52191.28;5079630;28;20011;-66
2022/06/17 05:23:35;;;;;;;;;;;;;;;-144.99;85.20;52189.25;5075632;28;19935;-65
2022/06/17 05:26:02;;;;;;;;;;;;;;;-144.99;82.81;52223.88;5086850;28;20004;-65
2022/06/17 05:28:28;;;;;;;;;;;;;;;-144.99;81.59;52191.28;5084275;28;19928;-66
2022/06/17 05:30:56;;;;;;;;;;;;;;;-144.99;79.03;52215.75;5075841;28;20010;-67
2022/06/17 05:33:24;;;;;;;;;;;;;;;-144.99;77.92;52189.25;5074382;28;19969;-65
2022/06/17 05:35:50;;;;;;;;;;;;;;;-144.99;78.30;52213.69;5078445;28;19960;-68
2022/06/17 05:38:17;;;;;;;;;;;;;;;-144.99;77.55;52232.03;5068250;28;20031;-67
2022/06/17 05:40:45;;;;;;;;;;;;;;;-144.99;76.38;52211.66;5066735;28;19967;-67
2022/06/17 05:43:12;;;;;;;;;;;;;;;-144.99;74.64;52191.28;5076113;28;19932;-67
2022/06/17 05:45:39;;;;;;;;;;;;;;;-144.99;74.05;52240.19;5077940;28;19982;-66
2022/06/17 05:48:06;;;;;;;;;;;;;;;-144.99;72.84;52207.59;5074568;28;19924;-67
2022/06/17 05:50:32;;;;;;;;;;;;;;;-144.99;72.35;52203.50;5070392;28;19928;-66
2022/06/17 05:53:00;;;;;;;;;;;;;;;-144.99;72.10;52232.03;5080638;28;19928;-66
2022/06/17 05:55:28;;;;;;;;;;;;;;;-144.99;71.53;52209.63;5067941;28;20023;-67
2022/06/17 05:57:56;;;;;;;;;;;;;;;-144.99;70.80;52187.19;5074300;28;19931;-66
2022/06/17 06:00:24;;;;;;;;;;;;;;;-144.99;70.14;52179.06;5070242;28;20452;-66
2022/06/17 06:02:51;;;;;;;;;;;;;;;-144.99;69.60;52191.28;5072798;28;19924;-67
2022/06/17 06:05:20;;;;;;;;;;;;;;;-144.99;69.27;52195.34;5075567;28;20001;-66
2022/06/17 06:07:46;;;;;;;;;;;;;;;-144.99;67.93;52195.34;5078331;28;19963;-67
2022/06/17 06:10:13;;;;;;;;;;;;;;;-144.99;67.04;52187.19;5069308;28;19988;-68
2022/06/17 06:12:57;;;;;;;;;;;;;;;-144.99;66.57;52199.44;5074851;28;19928;-67
2022/06/17 06:15:58;;;;;;;;;;;;;;;-144.99;66.08;52174.97;5082524;28;19912;-66
2022/06/17 06:18:27;;;;;;;;;;;;;;;-144.99;64.78;52193.31;5073267;28;19952;-67
2022/06/17 06:21:36;;;;;;;;;;;;;;;-144.99;64.57;52187.19;5080276;28;20411;-67
2022/06/17 06:24:03;;;;;;;;;;;;;;;-144.99;63.18;52174.97;5078585;28;20322;-66
2022/06/17 06:26:30;;;;;;;;;;;;;;;-144.99;62.90;52168.84;5077000;28;19959;-68
2022/06/17 06:28:56;;;;;;;;;;;;;;;-144.99;62.40;52234.09;5073878;28;20283;-67
2022/06/17 06:31:25;;;;;;;;;;;;;;;-144.99;61.71;52195.34;5071942;28;19935;-66
2022/06/17 06:33:53;;;;;;;;;;;;;;;-144.99;61.03;52191.28;5078503;28;20414;-66
2022/06/17 06:36:20;;;;;;;;;;;;;;;-144.99;61.14;52174.97;5076805;28;19975;-66
2022/06/17 06:38:46;;;;;;;;;;;;;;;-144.99;60.97;52174.97;5075782;28;19973;-67
2022/06/17 06:41:13;;;;;;;;;;;;;;;-144.99;60.71;52195.34;5073167;28;19970;-66
2022/06/17 06:43:40;;;;;;;;;;;;;;;-144.99;61.28;52209.63;5073781;28;19924;-67
2022/06/17 06:46:08;;;;;;;;;;;;;;;-144.99;59.49;52187.19;5079173;28;20399;-67
2022/06/17 06:48:35;;;;;;;;;;;;;;;-144.99;59.51;52146.44;5076115;28;19924;-68
2022/06/17 06:51:03;;;;;;;;;;;;;;;-144.99;59.29;52187.19;4718296;28;10000350;-68
2022/06/17 06:53:29;;;;;;;;;;;;;;;-144.99;58.22;52193.31;5069166;28;19959;-67
2022/06/17 06:55:56;;;;;;;;;;;;;;;-144.99;56.50;52158.66;5071774;28;19928;-67
2022/06/17 06:58:23;;;;;;;;;;;;;;;-144.99;56.61;52154.59;5081792;28;20010;-67
2022/06/17 07:00:50;;;;;;;;;;;;;;;-144.99;56.45;52187.19;5079356;28;20413;-66
2022/06/17 07:03:17;;;;;;;;;;;;;;;-144.99;56.56;52189.25;5078767;28;19989;-65
2022/06/17 07:05:46;;;;;;;;;;;;;;;-144.99;56.76;52138.28;5073246;28;19931;-66
2022/06/17 07:08:15;;;;;;;;;;;;;;;-144.99;55.89;52138.28;5075340;28;20409;-66
2022/06/17 07:10:42;;;;;;;;;;;;;;;-144.99;55.48;52146.44;5069686;28;19928;-66
2022/06/17 07:13:09;;;;;;;;;;;;;;;-144.99;53.87;52174.97;5080834;28;20293;-66
2022/06/17 07:15:36;;;;;;;;;;;;;;;-144.99;53.93;52154.59;5079414;28;19993;-65
2022/06/17 07:18:03;;;;;;;;;;;;;;;-144.99;54.43;52138.28;5076451;28;19971;-65
2022/06/17 07:20:36;;;;;;;;;;;;;;;-144.99;53.25;52134.22;5077742;28;19964;-67
2022/06/17 07:23:03;;;;;;;;;;;;;;;-144.99;52.85;52134.22;5068862;28;20377;-67
2022/06/17 07:25:31;;;;;;;;;;;;;;;-144.99;51.78;52130.13;5084641;28;19932;-67
2022/06/17 07:27:57;;;;;;;;;;;;;;;-144.99;51.32;52095.50;5073552;28;19928;-67
2022/06/17 07:30:24;;;;;;;;;;;;;;;-144.99;50.54;52162.75;5079225;28;19948;-67
2022/06/17 07:32:50;;;;;;;;;;;;;;;-144.99;51.01;52130.13;5082031;28;20481;-67
2022/06/17 07:35:17;;;;;;;;;;;;;;;-144.99;50.98;52154.59;5077105;28;20760;-66
2022/06/17 07:40:28;;;;;;;;;;;;;;;-144.99;49.95;52117.91;5068241;28;20217;-65
2022/06/17 07:42:57;;;;;;;;;;;;;;;-144.99;50.47;52105.69;5073159;28;19928;-66
2022/06/17 07:45:24;;;;;;;;;;;;;;;-144.99;50.02;52097.53;5077622;28;20022;-66
2022/06/17 07:47:52;;;;;;;;;;;;;;;-144.99;49.37;52111.78;5068662;28;19972;-66
2022/06/17 07:50:20;;;;;;;;;;;;;;;-144.99;49.06;52134.22;5076653;28;19981;-65
2022/06/17 07:52:46;;;;;;;;;;;;;;;-144.99;48.34;52121.97;5073112;28;19928;-67
2022/06/17 07:55:14;;;;;;;;;;;;;;;-144.99;48.22;52105.69;5068050;28;19963;-67
2022/06/17 07:57:40;;;;;;;;;;;;;;;-144.99;48.57;52089.38;5086316;28;20080;-66
2022/06/17 08:00:10;;;;;;;;;;;;;;;-144.99;47.37;52089.38;5088004;28;20026;-66
2022/06/17 08:02:36;;;;;;;;;;;;;;;-144.99;46.71;52111.78;5075309;28;19967;-66
2022/06/17 08:05:03;;;;;;;;;;;;;;;-144.99;46.35;52077.16;5079710;28;19967;-66
2022/06/17 08:07:30;;;;;;;;;;;;;;;-144.99;45.74;52091.41;5071644;28;20453;-66
2022/06/17 08:09:57;;;;;;;;;;;;;;;-144.99;46.22;52064.91;5087908;28;19935;-65
2022/06/17 08:12:23;;;;;;;;;;;;;;;-144.99;45.13;52087.34;5073001;28;20037;-68
2022/06/17 08:14:54;;;;;;;;;;;;;;;-144.99;44.30;52056.78;5074481;28;20341;-68
2022/06/17 08:17:22;;;;;;;;;;;;;;;-144.99;43.75;52052.69;5067966;28;19980;-66
2022/06/17 08:19:51;;;;;;;;;;;;;;;-144.99;43.31;52026.19;5068174;28;19925;-68
2022/06/17 08:22:18;;;;;;;;;;;;;;;-144.99;43.57;52077.16;5073355;28;20052;-67
2022/06/17 08:24:44;;;;;;;;;;;;;;;-144.99;43.61;52077.16;5075415;28;19925;-67
2022/06/17 08:27:11;;;;;;;;;;;;;;;-144.99;43.70;52042.50;5070387;28;20036;-66
2022/06/17 08:29:37;;;;;;;;;;;;;;;-144.99;43.64;52032.31;5081865;28;20373;-66
2022/06/17 08:34:46;;;;;;;;;;;;;;;-144.99;43.57;52101.59;5071130;28;19940;-67
2022/06/17 08:37:14;;;;;;;;;;;;;;;-144.99;44.10;52075.09;5077797;28;20340;-68
2022/06/17 08:39:41;;;;;;;;;;;;;;;-144.99;43.82;52111.78;5073855;28;19928;-67
2022/06/17 08:42:12;;;;;;;;;;;;;;;-144.99;44.04;52056.78;5079114;28;20332;-67
2022/06/17 08:44:45;;;;;;;;;;;;;;;-144.99;44.04;52069.00;5075213;28;20339;-67
2022/06/17 08:47:20;;;;;;;;;;;;;;;-144.99;43.40;52052.69;5071955;28;20179;-68
2022/06/17 08:50:06;;;;;;;;;;;;;;;-144.99;43.62;52064.91;5078768;28;19928;-67
2022/06/17 08:52:43;;;;;;;;;;;;;;;-144.99;43.68;52083.25;5071472;28;20436;-67
2022/06/17 08:55:14;;;;;;;;;;;;;;;-144.99;43.54;52052.69;5071996;28;20328;-67
2022/06/17 08:57:47;;;;;;;;;;;;;;;-144.99;43.79;52081.22;5073176;28;19930;-67
2022/06/17 09:00:16;;;;;;;;;;;;;;;-144.99;43.61;52077.16;5073632;28;20406;-66
2022/06/17 09:02:58;;;;;;;;;;;;;;;-144.99;43.14;52095.50;5071304;28;19928;-67
2022/06/17 09:05:34;;;;;;;;;;;;;;;-144.99;43.39;52060.84;5052795;28;19928;-68
2022/06/17 09:08:10;;;;;;;;;;;;;;;-144.99;43.35;52113.84;5076106;28;19991;-67
2022/06/17 09:10:41;;;;;;;;;;;;;;;-144.99;42.91;52077.16;5070436;28;20093;-68
2022/06/17 09:13:16;;;;;;;;;;;;;;;-144.99;43.10;52093.44;5069343;28;19928;-70
2022/06/17 09:15:45;;;;;;;;;;;;;;;-144.99;43.32;52064.91;5071287;28;19965;-68
2022/06/17 09:18:17;;;;;;;;;;;;;;;-144.99;43.32;52036.38;5075819;28;20016;-68
2022/06/17 09:20:48;;;;;;;;;;;;;;;-144.99;41.65;52056.78;5086597;28;20027;-67
2022/06/17 09:23:16;;;;;;;;;;;;;;;-144.99;41.34;52069.00;5076260;28;20025;-67
2022/06/17 09:25:44;;;;;;;;;;;;;;;-144.99;41.21;52044.53;5071956;28;20396;-68
2022/06/17 09:28:13;;;;;;;;;;;;;;;-144.99;41.87;52077.16;5086831;28;19931;-68
2022/06/17 09:30:44;;;;;;;;;;;;;;;-144.99;40.73;52052.69;5077629;28;19932;-68
2022/06/17 09:33:15;;;;;;;;;;;;;;;-144.99;41.36;52040.47;5079249;28;19963;-66
2022/06/17 09:35:45;;;;;;;;;;;;;;;-144.99;40.67;52060.84;5078348;28;20458;-68
2022/06/17 09:38:14;;;;;;;;;;;;;;;-144.99;39.85;52036.38;5079809;28;19970;-67
2022/06/17 09:40:42;;;;;;;;;;;;;;;-144.99;38.84;52093.44;5087672;28;19934;-68
2022/06/17 09:43:14;;;;;;;;;;;;;;;-144.99;39.66;52077.16;5071525;28;19989;-66
2022/06/17 09:45:42;;;;;;;;;;;;;;;-144.99;39.61;52048.63;5066382;28;20190;-67
2022/06/17 09:48:11;;;;;;;;;;;;;;;-144.99;39.80;52083.25;5067277;28;19925;-68
2022/06/17 09:50:41;;;;;;;;;;;;;;;-144.99;40.30;52077.16;5078437;28;19971;-68
2022/06/17 09:53:09;;;;;;;;;;;;;;;-144.99;40.01;52097.53;5121622;22;20006;-70
2022/06/17 09:55:39;;;;;;;;;;;;;;;-144.99;40.01;52073.06;5116837;27;19934;-72
2022/06/17 09:58:10;;;;;;;;;;;;;;;-144.99;40.13;52081.22;5127324;27;20215;-72
2022/06/17 10:00:39;;;;;;;;;;;;;;;-144.99;40.84;52073.06;5114414;27;19932;-70
2022/06/17 10:03:15;;;;;;;;;;;;;;;-144.99;40.46;52081.22;5105091;27;19976;-71
2022/06/17 10:05:46;;;;;;;;;;;;;;;-144.99;40.21;52077.16;5117932;27;20031;-70
2022/06/17 10:08:17;;;;;;;;;;;;;;;-144.99;39.91;52083.25;5128579;27;20329;-71
2022/06/17 10:10:51;;;;;;;;;;;;;;;-144.99;40.40;52060.84;5119169;27;20175;-71
2022/06/17 10:13:22;;;;;;;;;;;;;;;-144.99;40.07;52077.16;5096518;28;20018;-71
2022/06/17 10:18:39;;;;;;;;;;;;;;;-144.99;39.92;52093.44;5090026;28;19959;-72
2022/06/17 10:21:25;;;;;;;;;;;;;;;-144.99;40.21;52095.50;5096612;28;19963;-72
2022/06/17 10:24:01;;;;;;;;;;;;;;;-144.99;39.36;52042.50;5107196;28;20033;-71
2022/06/17 10:26:37;;;;;;;;;;;;;;;-144.99;39.50;52040.47;5101674;28;20225;-72
2022/06/17 10:29:22;;;;;;;;;;;;;;;-144.99;39.56;52018.03;5100209;28;19924;-72
2022/06/17 10:31:50;;;;;;;;;;;;;;;-144.99;39.04;52024.16;5092710;28;20018;-72
2022/06/17 10:34:19;;;;;;;;;;;;;;;-144.99;39.74;52036.38;5096610;28;19935;-72
2022/06/17 10:36:46;;;;;;;;;;;;;;;-144.99;40.25;52107.72;5104393;28;20010;-70
2022/06/17 10:39:14;;;;;;;;;;;;;;;-144.99;40.28;52113.84;5095843;28;19924;-72
2022/06/17 10:41:42;;;;;;;;;;;;;;;-144.99;41.09;52105.69;5101285;28;19974;-73
2022/06/17 10:44:11;;;;;;;;;;;;;;;-144.99;41.09;52060.84;5101122;28;19932;-72
2022/06/17 10:46:40;;;;;;;;;;;;;;;-144.99;41.18;52073.06;5098646;28;19928;-72
2022/06/17 10:49:11;;;;;;;;;;;;;;;-144.99;41.45;52093.44;5095047;28;19963;-66
2022/06/17 10:51:39;;;;;;;;;;;;;;;-144.99;41.80;52075.09;5099179;28;20155;-67
2022/06/17 10:54:11;;;;;;;;;;;;;;;-144.99;41.75;52089.38;5097162;28;19969;-66
2022/06/17 10:56:43;;;;;;;;;;;;;;;-144.99;41.66;52121.97;5099336;28;20196;-64
2022/06/17 10:59:11;;;;;;;;;;;;;;;-144.99;41.60;52077.16;5095062;28;20021;-72
2022/06/17 11:01:49;;;;;;;;;;;;;;;-144.99;41.73;52089.38;5100189;28;19924;-72
2022/06/17 11:04:17;;;;;;;;;;;;;;;-144.99;41.14;52099.56;5107003;28;19968;-72
2022/06/17 11:06:47;;;;;;;;;;;;;;;-144.99;41.16;52077.16;5095213;28;20337;-72
2022/06/17 11:09:19;;;;;;;;;;;;;;;-144.99;41.27;52058.81;5100413;28;19986;-72
2022/06/17 11:12:05;;;;;;;;;;;;;;;-144.99;40.98;52040.47;5101979;28;19973;-71
2022/06/17 11:14:39;;;;;;;;;;;;;;;-144.99;40.21;52036.38;5095609;28;20008;-71
2022/06/17 11:17:13;;;;;;;;;;;;;;;-144.99;40.07;52073.06;5098380;28;19992;-71
2022/06/17 11:19:40;;;;;;;;;;;;;;;-144.99;40.39;52034.34;5097735;28;20011;-71
2022/06/17 11:22:07;;;;;;;;;;;;;;;-144.99;39.95;52058.81;5103492;28;19924;-71
2022/06/17 11:24:35;;;;;;;;;;;;;;;-144.99;40.80;52064.91;5099151;28;20394;-72
2022/06/17 11:27:05;;;;;;;;;;;;;;;-144.99;41.08;52073.06;5100212;28;20020;-71
2022/06/17 11:29:38;;;;;;;;;;;;;;;-144.99;41.18;52032.31;5104546;28;20296;-71
2022/06/17 11:32:26;;;;;;;;;;;;;;;-144.99;41.01;52054.72;5094383;28;19928;-73
2022/06/17 11:34:55;;;;;;;;;;;;;;;-144.99;40.92;52052.69;5095537;28;19932;-71
2022/06/17 11:37:24;;;;;;;;;;;;;;;-144.99;41.34;52054.72;5094510;28;19967;-73
2022/06/17 11:40:07;;;;;;;;;;;;;;;-144.99;40.71;52052.69;5091925;28;20447;-72
2022/06/17 11:42:34;;;;;;;;;;;;;;;-144.99;40.78;52048.63;5102068;28;19961;-72
2022/06/17 11:45:04;;;;;;;;;;;;;;;-144.99;40.58;52069.00;5096100;28;20433;-70
2022/06/17 11:47:32;;;;;;;;;;;;;;;-144.99;40.25;52064.91;5107587;28;19931;-72
2022/06/17 11:50:00;;;;;;;;;;;;;;;-144.99;40.28;52048.63;5103064;28;19924;-72
2022/06/17 11:52:28;;;;;;;;;;;;;;;-144.99;39.70;52048.63;5094423;28;20155;-71
2022/06/17 11:54:55;;;;;;;;;;;;;;;-144.99;40.32;52048.63;5090930;28;19924;-71
2022/06/17 11:57:24;;;;;;;;;;;;;;;-144.99;40.49;52066.97;5094237;28;20346;-71
2022/06/17 11:59:53;;;;;;;;;;;;;;;-144.99;40.08;52048.63;5102814;28;19924;-71
2022/06/17 12:02:21;;;;;;;;;;;;;;;-144.99;40.16;52016.00;5093492;28;20352;-71
2022/06/17 12:04:49;;;;;;;;;;;;;;;-144.99;40.14;52050.66;5094757;28;20022;-71
2022/06/17 12:07:36;;;;;;;;;;;;;;;-144.99;40.01;52028.22;5099035;28;19950;-71
2022/06/17 12:10:09;;;;;;;;;;;;;;;-144.99;40.56;52087.34;5095855;28;19932;-72
2022/06/17 12:12:37;;;;;;;;;;;;;;;-144.99;40.23;52069.00;5104711;28;19928;-71
2022/06/17 12:15:06;;;;;;;;;;;;;;;-144.99;40.43;52069.00;5107833;28;19932;-71
2022/06/17 12:17:35;;;;;;;;;;;;;;;-144.99;40.75;52083.25;5105138;28;19936;-71
2022/06/17 12:20:02;;;;;;;;;;;;;;;-144.99;41.20;52085.31;5090785;28;19977;-71
2022/06/17 12:22:34;;;;;;;;;;;;;;;-144.99;41.42;52069.00;5092630;28;19924;-71
2022/06/17 12:25:06;;;;;;;;;;;;;;;-144.99;41.66;52073.06;5094784;28;19928;-71
2022/06/17 12:27:34;;;;;;;;;;;;;;;-144.99;41.67;52062.88;5106509;28;19956;-72
2022/06/17 12:30:03;;;;;;;;;;;;;;;-144.99;41.71;52097.53;5090860;28;19963;-71
2022/06/17 12:32:35;;;;;;;;;;;;;;;-144.99;41.89;52089.38;5105475;28;19963;-71
2022/06/17 12:35:06;;;;;;;;;;;;;;;-144.99;42.06;52083.25;5098011;28;20026;-71
2022/06/17 12:37:42;;;;;;;;;;;;;;;-144.99;41.58;52040.47;5097429;28;20008;-73
2022/06/17 12:40:13;;;;;;;;;;;;;;;-144.99;41.62;52115.88;5095094;28;19971;-72
2022/06/17 12:42:44;;;;;;;;;;;;;;;-144.99;41.10;52097.53;5098571;28;19977;-72
2022/06/17 12:45:17;;;;;;;;;;;;;;;-144.99;40.98;52073.06;5091274;28;19934;-72